createdAt,value
2022-08-31T00:00:34.540Z,8.60
2022-08-31T00:03:20.825Z,8.50
2022-08-31T00:05:48.225Z,11.83
2022-08-31T00:08:15.903Z,6.00
2022-08-31T00:10:46.374Z,5.30
2022-08-31T00:13:14.245Z,7.30
2022-08-31T00:15:42.674Z,7.60
2022-08-31T00:18:10.267Z,5.60
2022-08-31T00:20:37.721Z,7.27
2022-08-31T00:23:12.744Z,6.77
2022-08-31T00:25:44.743Z,12.30
2022-08-31T00:28:13.708Z,14.00
2022-08-31T00:30:41.841Z,8.70
2022-08-31T00:33:09.691Z,9.63
2022-08-31T00:35:41.555Z,11.73
2022-08-31T00:38:10.384Z,6.97
2022-08-31T00:40:45.011Z,6.57
2022-08-31T00:43:48.944Z,6.43
2022-08-31T00:46:23.485Z,7.17
2022-08-31T00:49:12.676Z,7.83
2022-08-31T00:51:56.950Z,6.30
2022-08-31T00:54:46.298Z,8.70
2022-08-31T00:57:15.249Z,8.60
2022-08-31T00:59:44.924Z,6.80
2022-08-31T01:02:12.091Z,8.27
2022-08-31T01:04:39.514Z,7.10
2022-08-31T01:07:08.157Z,6.27
2022-08-31T01:09:45.090Z,7.10
2022-08-31T01:12:23.378Z,6.47
2022-08-31T01:14:50.586Z,10.20
2022-08-31T01:17:18.233Z,9.20
2022-08-31T01:19:54.658Z,8.30
2022-08-31T01:23:07.943Z,8.97
2022-08-31T01:25:38.607Z,8.57
2022-08-31T01:28:09.923Z,10.47
2022-08-31T01:30:39.667Z,7.80
2022-08-31T01:33:07.556Z,9.40
2022-08-31T01:35:35.702Z,8.60
2022-08-31T01:38:04.601Z,8.17
2022-08-31T01:40:45.896Z,5.80
2022-08-31T01:43:13.132Z,8.37
2022-08-31T01:45:41.909Z,10.13
2022-08-31T01:48:09.118Z,7.57
2022-08-31T01:50:36.506Z,7.77
2022-08-31T01:53:04.082Z,6.20
2022-08-31T01:55:32.023Z,14.30
2022-08-31T01:58:00.515Z,8.33
2022-08-31T02:01:00.638Z,10.27
2022-08-31T02:03:27.835Z,8.40
2022-08-31T02:08:22.067Z,7.80
2022-08-31T02:10:50.885Z,8.90
2022-08-31T02:13:18.510Z,7.73
2022-08-31T02:15:45.799Z,9.93
2022-08-31T02:18:15.434Z,9.80
2022-08-31T02:20:46.294Z,9.03
2022-08-31T02:23:13.480Z,12.60
2022-08-31T02:25:40.604Z,6.40
2022-08-31T02:28:07.834Z,6.63
2022-08-31T02:30:35.070Z,9.53
2022-08-31T02:33:02.603Z,9.10
2022-08-31T02:35:29.911Z,6.00
2022-08-31T02:37:57.321Z,8.50
2022-08-31T02:40:25.263Z,10.83
2022-08-31T02:42:54.196Z,7.03
2022-08-31T02:45:26.724Z,7.17
2022-08-31T02:48:00.372Z,5.70
2022-08-31T02:50:42.714Z,5.50
2022-08-31T02:53:11.672Z,9.33
2022-08-31T02:55:40.168Z,6.60
2022-08-31T02:58:07.613Z,15.17
2022-08-31T03:00:34.973Z,10.30
2022-08-31T03:03:03.178Z,14.03
2022-08-31T03:05:30.838Z,15.53
2022-08-31T03:07:58.485Z,9.00
2022-08-31T03:10:26.721Z,8.60
2022-08-31T03:12:54.393Z,8.30
2022-08-31T03:15:25.202Z,9.13
2022-08-31T03:17:53.560Z,8.20
2022-08-31T03:20:26.638Z,8.00
2022-08-31T03:22:54.403Z,9.30
2022-08-31T03:25:21.998Z,9.03
2022-08-31T03:27:50.765Z,11.23
2022-08-31T03:30:20.773Z,9.03
2022-08-31T03:33:02.752Z,9.03
2022-08-31T03:35:31.573Z,12.67
2022-08-31T03:37:58.984Z,6.60
2022-08-31T03:40:26.156Z,7.23
2022-08-31T03:42:53.306Z,9.60
2022-08-31T03:45:20.723Z,8.90
2022-08-31T03:47:47.899Z,8.97
2022-08-31T03:50:16.311Z,8.30
2022-08-31T03:53:12.679Z,9.07
2022-08-31T03:55:42.311Z,20.13
2022-08-31T03:58:12.016Z,8.73
2022-08-31T04:00:43.136Z,7.20
2022-08-31T04:03:24.297Z,8.10
2022-08-31T04:06:12.430Z,7.17
2022-08-31T04:08:58.186Z,8.13
2022-08-31T04:12:00.937Z,15.67
2022-08-31T04:14:46.767Z,6.87
2022-08-31T04:17:32.998Z,10.10
2022-08-31T04:20:29.390Z,8.20
2022-08-31T04:22:58.033Z,7.53
2022-08-31T04:25:32.933Z,10.37
2022-08-31T04:28:01.401Z,7.83
2022-08-31T04:30:31.466Z,13.70
2022-08-31T04:33:01.935Z,6.87
2022-08-31T04:35:29.142Z,11.40
2022-08-31T04:37:56.588Z,8.07
2022-08-31T04:40:26.234Z,10.03
2022-08-31T04:42:54.446Z,10.50
2022-08-31T04:45:24.688Z,13.07
2022-08-31T04:47:52.837Z,15.53
2022-08-31T04:50:20.253Z,10.07
2022-08-31T04:53:07.885Z,11.50
2022-08-31T04:55:41.113Z,10.33
2022-08-31T04:58:10.910Z,8.87
2022-08-31T05:00:38.367Z,10.30
2022-08-31T05:03:11.701Z,8.13
2022-08-31T05:05:41.035Z,11.20
2022-08-31T05:08:08.874Z,12.73
2022-08-31T05:10:36.275Z,8.13
2022-08-31T05:13:04.017Z,11.87
2022-08-31T05:15:33.839Z,14.90
2022-08-31T05:18:01.335Z,8.87
2022-08-31T05:20:32.184Z,8.43
2022-08-31T05:22:59.390Z,9.90
2022-08-31T05:25:27.453Z,9.70
2022-08-31T05:27:55.035Z,11.47
2022-08-31T05:30:22.857Z,7.40
2022-08-31T05:33:05.868Z,7.63
2022-08-31T05:35:35.169Z,7.57
2022-08-31T05:38:02.553Z,10.80
2022-08-31T05:40:30.923Z,13.13
2022-08-31T05:42:59.632Z,7.10
2022-08-31T05:45:27.693Z,13.13
2022-08-31T05:47:55.448Z,8.83
2022-08-31T05:50:22.695Z,11.33
2022-08-31T05:52:50.121Z,16.03
2022-08-31T05:55:17.597Z,10.00
2022-08-31T05:57:45.188Z,8.00
2022-08-31T06:00:13.029Z,9.63
2022-08-31T06:02:40.205Z,12.00
2022-08-31T06:05:10.060Z,8.13
2022-08-31T06:07:37.890Z,7.67
2022-08-31T06:10:10.489Z,8.27
2022-08-31T06:12:39.659Z,8.40
2022-08-31T06:15:07.629Z,7.70
2022-08-31T06:17:36.376Z,8.80
2022-08-31T06:20:06.244Z,6.40
2022-08-31T06:22:37.181Z,6.40
2022-08-31T06:25:10.339Z,7.97
2022-08-31T06:27:38.794Z,8.10
2022-08-31T06:30:07.944Z,8.00
2022-08-31T06:32:35.783Z,6.10
2022-08-31T06:35:05.198Z,7.60
2022-08-31T06:37:53.385Z,7.00
2022-08-31T06:40:46.673Z,11.60
2022-08-31T06:43:44.706Z,5.80
2022-08-31T06:46:23.609Z,9.70
2022-08-31T06:49:09.992Z,9.13
2022-08-31T06:51:38.379Z,5.60
2022-08-31T06:54:28.107Z,5.50
2022-08-31T06:57:14.969Z,7.53
2022-08-31T07:00:00.786Z,5.70
2022-08-31T07:02:34.265Z,8.37
2022-08-31T07:05:01.794Z,7.23
2022-08-31T07:07:31.350Z,10.40
2022-08-31T07:09:59.007Z,8.17
2022-08-31T07:12:26.439Z,7.00
2022-08-31T07:14:55.219Z,6.63
2022-08-31T07:17:24.170Z,7.10
2022-08-31T07:19:51.494Z,5.67
2022-08-31T07:22:19.823Z,6.90
2022-08-31T07:24:56.262Z,12.60
2022-08-31T07:27:23.619Z,6.10
2022-08-31T07:29:55.235Z,9.53
2022-08-31T07:32:23.820Z,14.73
2022-08-31T07:34:58.573Z,6.70
2022-08-31T07:37:57.835Z,14.07
2022-08-31T07:40:48.684Z,7.57
2022-08-31T07:43:16.654Z,6.70
2022-08-31T07:45:45.365Z,6.53
2022-08-31T07:48:20.001Z,7.13
2022-08-31T07:51:23.385Z,5.50
2022-08-31T07:54:10.283Z,10.33
2022-08-31T07:56:46.623Z,8.13
2022-08-31T07:59:15.408Z,9.50
2022-08-31T08:01:45.212Z,11.40
2022-08-31T08:04:19.229Z,13.33
2022-08-31T08:07:08.537Z,8.73
2022-08-31T08:09:55.670Z,7.57
2022-08-31T08:12:43.969Z,6.60
2022-08-31T08:15:19.974Z,9.97
2022-08-31T08:18:25.486Z,5.30
2022-08-31T08:20:57.854Z,11.50
2022-08-31T08:23:28.180Z,4.77
2022-08-31T08:26:21.642Z,9.73
2022-08-31T08:29:05.924Z,6.00
2022-08-31T08:31:36.919Z,5.87
2022-08-31T08:34:04.164Z,7.10
2022-08-31T08:36:36.497Z,5.07
2022-08-31T08:39:09.401Z,6.70
2022-08-31T08:41:41.614Z,4.50
2022-08-31T08:44:18.073Z,6.13
2022-08-31T08:46:56.418Z,5.27
2022-08-31T08:49:50.894Z,6.70
2022-08-31T08:52:40.979Z,4.43
2022-08-31T08:55:27.340Z,7.23
2022-08-31T08:57:56.182Z,7.63
2022-08-31T09:00:29.805Z,3.63
2022-08-31T09:03:18.197Z,4.40
2022-08-31T09:06:11.395Z,4.50
2022-08-31T09:09:25.927Z,7.20
2022-08-31T09:12:46.289Z,6.03
2022-08-31T09:15:39.581Z,2.70
2022-08-31T09:18:53.317Z,4.53
2022-08-31T09:21:29.570Z,4.37
2022-08-31T09:24:02.893Z,2.93
2022-08-31T09:27:18.114Z,9.23
2022-08-31T09:29:59.519Z,5.00
2022-08-31T09:32:35.695Z,3.53
2022-08-31T09:35:09.267Z,6.50
2022-08-31T09:37:46.236Z,4.20
2022-08-31T09:40:40.693Z,4.27
2022-08-31T09:43:15.436Z,3.73
2022-08-31T09:46:23.868Z,6.60
2022-08-31T09:48:58.382Z,3.37
2022-08-31T09:51:34.441Z,2.30
2022-08-31T09:54:46.636Z,7.23
2022-08-31T09:57:15.138Z,8.57
2022-08-31T09:59:48.070Z,5.10
2022-08-31T10:02:22.762Z,10.30
2022-08-31T10:04:57.271Z,4.27
2022-08-31T10:07:38.060Z,4.33
2022-08-31T10:10:20.467Z,4.90
2022-08-31T10:13:22.441Z,2.33
2022-08-31T10:16:14.600Z,2.30
2022-08-31T10:18:52.300Z,2.60
2022-08-31T10:21:39.671Z,3.90
2022-08-31T10:24:46.468Z,2.33
2022-08-31T10:27:31.376Z,11.33
2022-08-31T10:30:08.555Z,3.03
2022-08-31T10:32:38.699Z,3.43
2022-08-31T10:35:42.591Z,7.30
2022-08-31T10:38:43.722Z,2.20
2022-08-31T10:41:19.644Z,4.50
2022-08-31T10:44:23.739Z,9.30
2022-08-31T10:46:54.456Z,3.83
2022-08-31T10:49:22.288Z,3.37
2022-08-31T10:52:29.327Z,2.17
2022-08-31T10:55:18.196Z,7.50
2022-08-31T10:58:33.589Z,3.33
2022-08-31T11:01:19.011Z,2.03
2022-08-31T11:04:44.168Z,2.37
2022-08-31T11:07:33.550Z,2.93
2022-08-31T11:10:27.641Z,2.90
2022-08-31T11:13:05.137Z,6.00
2022-08-31T11:15:48.887Z,3.47
2022-08-31T11:18:50.724Z,1.63
2022-08-31T11:22:05.638Z,2.50
2022-08-31T11:24:41.626Z,2.13
2022-08-31T11:27:23.746Z,1.73
2022-08-31T11:30:27.888Z,1.60
2022-08-31T11:33:00.321Z,4.20
2022-08-31T11:35:49.488Z,2.13
2022-08-31T11:38:50.056Z,5.93
2022-08-31T11:41:50.974Z,2.70
2022-08-31T11:44:30.476Z,7.70
2022-08-31T11:47:28.996Z,1.47
2022-08-31T11:50:18.344Z,3.93
2022-08-31T11:52:48.534Z,12.53
2022-08-31T11:55:28.502Z,1.70
2022-08-31T11:58:07.650Z,1.57
2022-08-31T12:00:50.959Z,2.50
2022-08-31T12:03:45.917Z,3.53
2022-08-31T12:06:25.635Z,3.57
2022-08-31T12:09:29.632Z,2.23
2022-08-31T12:12:12.194Z,2.20
2022-08-31T12:14:56.720Z,8.80
2022-08-31T12:17:47.090Z,1.40
2022-08-31T12:21:11.760Z,3.97
2022-08-31T12:24:18.960Z,5.37
2022-08-31T12:27:03.874Z,8.53
2022-08-31T12:29:35.336Z,1.53
2022-08-31T12:32:28.011Z,2.30
2022-08-31T12:35:25.904Z,3.73
2022-08-31T12:38:17.635Z,5.50
2022-08-31T12:40:55.787Z,1.73
2022-08-31T12:43:31.731Z,4.23
2022-08-31T12:46:09.444Z,1.53
2022-08-31T12:49:04.241Z,2.80
2022-08-31T12:51:48.202Z,2.47
2022-08-31T12:55:04.472Z,2.50
2022-08-31T12:58:02.784Z,1.63
2022-08-31T13:00:34.109Z,3.83
2022-08-31T13:03:17.502Z,3.90
2022-08-31T13:06:09.120Z,4.50
2022-08-31T13:08:44.899Z,2.10
2022-08-31T13:11:42.613Z,1.20
2022-08-31T13:14:12.620Z,1.37
2022-08-31T13:17:05.726Z,2.33
2022-08-31T13:19:35.276Z,4.13
2022-08-31T13:22:17.057Z,3.03
2022-08-31T13:24:53.624Z,3.63
2022-08-31T13:27:30.311Z,2.70
2022-08-31T13:30:19.134Z,2.77
2022-08-31T13:32:54.888Z,2.90
2022-08-31T13:35:27.568Z,2.03
2022-08-31T13:38:06.373Z,3.33
2022-08-31T13:40:39.375Z,2.90
2022-08-31T13:43:09.609Z,3.40
2022-08-31T13:45:58.681Z,4.43
2022-08-31T13:48:30.049Z,2.50
2022-08-31T13:51:09.768Z,3.83
2022-08-31T13:54:03.824Z,2.90
2022-08-31T13:56:49.161Z,2.20
2022-08-31T13:59:23.668Z,3.20
2022-08-31T14:02:16.349Z,3.73
2022-08-31T14:04:50.409Z,3.90
2022-08-31T14:07:32.673Z,6.37
2022-08-31T14:10:22.300Z,6.20
2022-08-31T14:13:02.549Z,24.47
2022-08-31T14:15:58.771Z,1.93
2022-08-31T14:18:40.334Z,2.37
2022-08-31T14:21:20.513Z,1.13
2022-08-31T14:24:03.019Z,3.03
2022-08-31T14:26:42.782Z,4.43
2022-08-31T14:29:16.533Z,3.20
2022-08-31T14:31:56.294Z,3.53
2022-08-31T14:34:41.049Z,1.63
2022-08-31T14:37:19.796Z,1.47
2022-08-31T14:40:05.640Z,2.10
2022-08-31T14:42:37.802Z,1.60
2022-08-31T14:45:18.610Z,1.93
2022-08-31T14:47:50.818Z,3.60
2022-08-31T14:50:25.509Z,1.33
2022-08-31T14:52:53.759Z,1.40
2022-08-31T14:55:24.420Z,2.03
2022-08-31T14:58:02.994Z,2.20
2022-08-31T15:00:51.061Z,2.03
2022-08-31T15:03:24.505Z,1.87
2022-08-31T15:05:51.676Z,4.13
2022-08-31T15:08:20.388Z,2.40
2022-08-31T15:11:06.471Z,1.73
2022-08-31T15:13:38.181Z,4.57
2022-08-31T15:16:08.185Z,2.60
2022-08-31T15:18:36.662Z,1.63
2022-08-31T15:21:06.074Z,2.13
2022-08-31T15:23:34.638Z,1.47
2022-08-31T15:26:06.677Z,4.60
2022-08-31T15:28:37.739Z,1.13
2022-08-31T15:31:11.489Z,3.23
2022-08-31T15:33:43.848Z,1.13
2022-08-31T15:36:15.440Z,2.03
2022-08-31T15:38:45.722Z,5.97
2022-08-31T15:41:13.343Z,2.33
2022-08-31T15:43:45.683Z,1.97
2022-08-31T15:46:16.261Z,1.77
2022-08-31T15:48:45.214Z,2.00
2022-08-31T15:51:27.823Z,1.40
2022-08-31T15:54:21.343Z,3.00
2022-08-31T15:56:48.266Z,1.60
2022-08-31T15:59:15.932Z,2.50
2022-08-31T16:01:43.061Z,5.00
2022-08-31T16:04:16.147Z,5.13
2022-08-31T16:06:43.290Z,3.00
2022-08-31T16:09:10.620Z,3.00
2022-08-31T16:11:37.862Z,3.40
2022-08-31T16:14:09.701Z,2.43
2022-08-31T16:16:46.555Z,1.67
2022-08-31T16:19:34.170Z,3.53
2022-08-31T16:22:05.999Z,3.10
2022-08-31T16:24:37.359Z,2.40
2022-08-31T16:27:13.102Z,3.33
2022-08-31T16:29:45.664Z,2.50
2022-08-31T16:32:13.832Z,3.50
2022-08-31T16:34:42.609Z,3.70
2022-08-31T16:37:10.467Z,2.43
2022-08-31T16:39:44.595Z,3.60
2022-08-31T16:42:14.384Z,7.93
2022-08-31T16:44:46.945Z,1.43
2022-08-31T16:47:18.712Z,2.03
2022-08-31T16:49:46.866Z,1.80
2022-08-31T16:52:21.549Z,2.63
2022-08-31T16:54:52.283Z,3.67
2022-08-31T16:57:27.362Z,5.50
2022-08-31T16:59:57.216Z,2.13
2022-08-31T17:02:25.475Z,2.53
2022-08-31T17:04:54.196Z,1.80
2022-08-31T17:07:24.302Z,2.40
2022-08-31T17:10:07.062Z,4.50
2022-08-31T17:12:34.745Z,3.80
2022-08-31T17:15:04.174Z,1.60
2022-08-31T17:17:32.889Z,2.70
2022-08-31T17:20:00.760Z,3.90
2022-08-31T17:22:33.061Z,2.93
2022-08-31T17:25:04.018Z,2.53
2022-08-31T17:27:33.327Z,3.63
2022-08-31T17:30:03.614Z,3.40
2022-08-31T17:32:30.740Z,4.30
2022-08-31T17:34:58.005Z,7.27
2022-08-31T17:37:32.727Z,2.03
2022-08-31T17:40:00.427Z,2.50
2022-08-31T17:42:28.747Z,3.77
2022-08-31T17:44:57.171Z,3.23
2022-08-31T17:47:26.013Z,5.03
2022-08-31T17:49:54.121Z,4.77
2022-08-31T17:52:21.957Z,3.27
2022-08-31T17:54:51.297Z,4.80
2022-08-31T17:57:25.091Z,2.00
2022-08-31T17:59:54.944Z,1.60
2022-08-31T18:02:27.691Z,3.33
2022-08-31T18:04:55.284Z,3.20
2022-08-31T18:07:22.500Z,1.63
2022-08-31T18:09:49.774Z,3.33
2022-08-31T18:12:21.944Z,3.70
2022-08-31T18:14:50.072Z,1.90
2022-08-31T18:17:18.284Z,1.53
2022-08-31T18:19:45.577Z,11.60
2022-08-31T18:22:18.290Z,2.60
2022-08-31T18:24:45.787Z,4.33
2022-08-31T18:27:15.331Z,4.37
2022-08-31T18:29:44.566Z,2.77
2022-08-31T18:32:12.353Z,1.90
2022-08-31T18:34:47.472Z,2.00
2022-08-31T18:37:21.944Z,2.30
2022-08-31T18:40:08.704Z,1.73
2022-08-31T18:42:56.897Z,4.50
2022-08-31T18:45:26.206Z,2.47
2022-08-31T18:50:46.794Z,2.10
2022-08-31T18:53:27.636Z,3.80
2022-08-31T18:56:05.178Z,3.13
2022-08-31T18:58:32.415Z,3.83
2022-08-31T19:00:59.702Z,2.60
2022-08-31T19:03:28.076Z,2.00
2022-08-31T19:05:56.684Z,7.50
2022-08-31T19:08:25.329Z,3.93
2022-08-31T19:10:54.220Z,2.57
2022-08-31T19:13:21.544Z,5.73
2022-08-31T19:15:48.996Z,3.83
2022-08-31T19:18:16.270Z,7.70
2022-08-31T19:20:43.400Z,4.10
2022-08-31T19:23:10.504Z,4.40
2022-08-31T19:25:43.032Z,7.13
2022-08-31T19:28:10.958Z,8.30
2022-08-31T19:30:38.428Z,4.07
2022-08-31T19:33:12.295Z,4.20
2022-08-31T19:35:40.001Z,3.87
2022-08-31T19:38:07.043Z,4.97
2022-08-31T19:40:39.963Z,6.70
2022-08-31T19:45:54.457Z,7.80
2022-08-31T19:48:24.336Z,5.80
2022-08-31T19:50:52.461Z,6.70
2022-08-31T19:53:21.520Z,4.13
2022-08-31T19:55:51.619Z,4.40
2022-08-31T19:58:26.463Z,6.40
2022-08-31T20:01:00.753Z,3.43
2022-08-31T20:03:31.212Z,2.80
2022-08-31T20:05:59.811Z,5.40
2022-08-31T20:08:26.942Z,4.57
2022-08-31T20:10:54.495Z,5.70
2022-08-31T20:13:28.292Z,6.10
2022-08-31T20:15:56.291Z,4.50
2022-08-31T20:18:26.231Z,3.47
2022-08-31T20:20:55.061Z,3.07
2022-08-31T20:23:22.753Z,4.40
2022-08-31T20:25:51.502Z,3.17
2022-08-31T20:28:26.312Z,8.50
2022-08-31T20:31:00.019Z,2.67
2022-08-31T20:33:27.994Z,6.17
2022-08-31T20:35:55.324Z,5.60
2022-08-31T20:38:22.534Z,4.73
2022-08-31T20:40:54.989Z,4.47
2022-08-31T20:43:23.709Z,5.30
2022-08-31T20:45:51.101Z,4.43
2022-08-31T20:48:37.070Z,5.50
2022-08-31T20:51:18.284Z,4.77
2022-08-31T20:53:46.641Z,7.30
2022-08-31T20:56:17.693Z,7.43
2022-08-31T20:58:46.555Z,4.53
2022-08-31T21:01:16.269Z,8.00
2022-08-31T21:03:43.773Z,4.80
2022-08-31T21:06:12.200Z,12.67
2022-08-31T21:08:42.391Z,7.70
2022-08-31T21:11:16.688Z,7.20
2022-08-31T21:13:46.449Z,11.73
2022-08-31T21:16:15.046Z,7.43
2022-08-31T21:18:42.191Z,6.23
2022-08-31T21:21:17.376Z,7.23
2022-08-31T21:23:46.333Z,5.67
2022-08-31T21:26:21.476Z,6.87
2022-08-31T21:28:49.531Z,9.97
2022-08-31T21:31:28.514Z,7.03
2022-08-31T21:34:02.352Z,6.13
2022-08-31T21:36:33.677Z,6.47
2022-08-31T21:39:01.022Z,7.63
2022-08-31T21:41:29.271Z,7.90
2022-08-31T21:43:57.518Z,9.20
2022-08-31T21:46:28.358Z,7.40
2022-08-31T21:48:58.424Z,8.10
2022-08-31T21:51:33.394Z,9.10
2022-08-31T21:54:05.079Z,12.13
2022-08-31T21:56:37.978Z,7.30
2022-08-31T21:59:07.302Z,9.77
2022-08-31T22:01:35.456Z,7.27
2022-08-31T22:04:06.979Z,11.17
2022-08-31T22:06:34.995Z,8.57
2022-08-31T22:09:13.361Z,9.27
2022-08-31T22:11:45.998Z,11.67
2022-08-31T22:14:18.499Z,9.17
2022-08-31T22:16:48.135Z,9.43
2022-08-31T22:19:21.781Z,18.60
2022-08-31T22:21:53.948Z,11.53
2022-08-31T22:24:27.496Z,12.10
2022-08-31T22:26:59.296Z,17.80
2022-08-31T22:29:31.634Z,13.13
2022-08-31T22:32:08.510Z,10.07
2022-08-31T22:34:37.730Z,8.57
2022-08-31T22:37:06.187Z,14.20
2022-08-31T22:39:33.506Z,16.57
2022-08-31T22:42:01.597Z,11.03
2022-08-31T22:44:34.200Z,15.00
2022-08-31T22:47:02.215Z,7.83
2022-08-31T22:49:29.631Z,7.40
2022-08-31T22:51:57.758Z,6.63
2022-08-31T22:54:26.391Z,9.03
2022-08-31T22:56:53.986Z,6.83
2022-08-31T22:59:27.341Z,9.30
2022-08-31T23:02:03.355Z,11.40
2022-08-31T23:04:33.632Z,6.43
2022-08-31T23:07:01.577Z,8.30
2022-08-31T23:09:30.986Z,9.77
2022-08-31T23:12:01.483Z,5.43
2022-08-31T23:14:29.733Z,10.70
2022-08-31T23:17:00.667Z,9.37
2022-08-31T23:19:37.925Z,16.00
2022-08-31T23:22:11.364Z,17.20
2022-08-31T23:24:46.337Z,21.63
2022-08-31T23:27:21.633Z,24.00
2022-08-31T23:29:53.869Z,24.47
2022-08-31T23:32:26.250Z,35.40
2022-08-31T23:34:56.386Z,36.73
2022-08-31T23:37:25.747Z,41.37
2022-08-31T23:39:54.905Z,43.97
2022-08-31T23:42:24.539Z,36.33
2022-08-31T23:44:52.738Z,40.63
2022-08-31T23:47:25.904Z,23.60
2022-08-31T23:49:53.381Z,29.63
2022-08-31T23:52:23.929Z,29.07
2022-08-31T23:54:55.340Z,31.10
2022-08-31T23:57:32.358Z,27.50
